createdAt,value
2018-09-28T00:01:37.089Z,11.40
2018-09-28T00:04:06.054Z,12.43
2018-09-28T00:06:34.207Z,13.22
2018-09-28T00:09:02.296Z,14.07
2018-09-28T00:11:30.325Z,13.75
2018-09-28T00:13:59.339Z,18.10
2018-09-28T00:16:27.520Z,18.45
2018-09-28T00:18:55.805Z,13.85
2018-09-28T00:21:23.876Z,12.60
2018-09-28T00:23:51.944Z,13.45
2018-09-28T00:26:21.236Z,10.65
2018-09-28T00:28:49.344Z,10.50
2018-09-28T00:31:17.359Z,10.30
2018-09-28T00:33:45.461Z,9.08
2018-09-28T00:36:13.575Z,7.90
2018-09-28T00:38:41.671Z,12.80
2018-09-28T00:41:09.602Z,8.70
2018-09-28T00:43:37.733Z,9.35
2018-09-28T00:46:05.779Z,8.78
2018-09-28T00:48:33.863Z,8.28
2018-09-28T00:51:01.971Z,7.70
2018-09-28T00:53:30.032Z,8.30
2018-09-28T00:55:58.101Z,7.72
2018-09-28T00:58:26.051Z,7.83
2018-09-28T01:00:54.320Z,9.65
2018-09-28T01:03:22.621Z,11.10
2018-09-28T01:05:50.768Z,8.08
2018-09-28T01:08:18.688Z,10.85
2018-09-28T01:10:46.820Z,7.83
2018-09-28T01:13:14.942Z,8.35
2018-09-28T01:15:42.975Z,9.05
2018-09-28T01:18:10.980Z,9.85
2018-09-28T01:20:41.251Z,9.43
2018-09-28T01:23:09.345Z,9.50
2018-09-28T01:25:37.441Z,10.18
2018-09-28T01:28:05.541Z,10.53
2018-09-28T01:30:33.904Z,9.88
2018-09-28T01:33:01.937Z,10.90
2018-09-28T01:35:30.008Z,8.88
2018-09-28T01:37:58.232Z,9.80
2018-09-28T01:40:26.530Z,9.85
2018-09-28T01:42:54.425Z,11.28
2018-09-28T01:45:22.548Z,10.10
2018-09-28T01:47:50.663Z,11.75
2018-09-28T01:50:18.843Z,11.28
2018-09-28T01:52:46.609Z,10.70
2018-09-28T01:55:14.900Z,10.25
2018-09-28T01:57:43.976Z,10.43
2018-09-28T02:00:12.255Z,15.65
2018-09-28T02:02:40.360Z,13.55
2018-09-28T02:05:08.410Z,12.18
2018-09-28T02:07:36.450Z,11.10
2018-09-28T02:10:04.796Z,10.40
2018-09-28T02:12:33.978Z,12.43
2018-09-28T02:15:02.238Z,11.25
2018-09-28T02:17:30.269Z,11.05
2018-09-28T02:19:58.368Z,13.50
2018-09-28T02:22:26.409Z,13.45
2018-09-28T02:24:54.512Z,12.30
2018-09-28T02:27:22.712Z,10.95
2018-09-28T02:29:50.955Z,12.40
2018-09-28T02:32:19.057Z,12.75
2018-09-28T02:34:47.127Z,11.12
2018-09-28T02:37:15.143Z,10.25
2018-09-28T02:39:43.221Z,10.53
2018-09-28T02:42:11.358Z,12.68
2018-09-28T02:44:39.359Z,11.63
2018-09-28T02:47:07.411Z,12.20
2018-09-28T02:49:35.492Z,13.35
2018-09-28T02:52:03.673Z,12.60
2018-09-28T02:54:31.976Z,11.63
2018-09-28T02:57:00.122Z,11.53
2018-09-28T02:59:27.889Z,11.93
2018-09-28T03:01:56.190Z,14.80
2018-09-28T03:04:24.487Z,12.35
2018-09-28T03:06:52.577Z,13.80
2018-09-28T03:09:20.650Z,12.40
2018-09-28T03:11:48.747Z,10.72
2018-09-28T03:14:16.836Z,12.73
2018-09-28T03:16:44.919Z,12.28
2018-09-28T03:19:13.046Z,12.33
2018-09-28T03:21:42.364Z,11.70
2018-09-28T03:24:10.670Z,14.98
2018-09-28T03:26:38.830Z,13.28
2018-09-28T03:29:07.176Z,13.10
2018-09-28T03:31:35.179Z,11.35
2018-09-28T03:34:03.251Z,12.88
2018-09-28T03:36:31.304Z,13.93
2018-09-28T03:38:59.411Z,14.25
2018-09-28T03:41:27.404Z,16.85
2018-09-28T03:43:55.546Z,13.00
2018-09-28T03:46:23.631Z,16.27
2018-09-28T03:48:51.737Z,12.40
2018-09-28T03:51:19.801Z,11.10
2018-09-28T03:53:49.035Z,10.98
2018-09-28T03:56:17.171Z,11.45
2018-09-28T03:58:45.204Z,10.63
2018-09-28T04:01:13.163Z,11.33
2018-09-28T04:03:41.254Z,17.48
2018-09-28T04:06:09.248Z,10.70
2018-09-28T04:08:37.517Z,11.78
2018-09-28T04:11:05.535Z,11.20
2018-09-28T04:13:33.324Z,9.00
2018-09-28T04:16:01.397Z,11.80
2018-09-28T04:18:29.494Z,10.80
2018-09-28T04:20:57.588Z,9.90
2018-09-28T04:23:25.385Z,11.68
2018-09-28T04:25:53.691Z,12.23
2018-09-28T04:28:21.744Z,12.13
2018-09-28T04:30:49.859Z,11.10
2018-09-28T04:33:17.908Z,11.75
2018-09-28T04:35:45.909Z,11.78
2018-09-28T04:38:16.479Z,13.60
2018-09-28T04:40:44.656Z,13.72
2018-09-28T04:43:12.981Z,13.50
2018-09-28T04:45:41.086Z,12.60
2018-09-28T04:48:09.097Z,9.20
2018-09-28T04:50:37.147Z,9.88
2018-09-28T04:53:05.575Z,11.55
2018-09-28T04:55:33.651Z,11.73
2018-09-28T04:58:01.810Z,15.60
2018-09-28T05:00:29.679Z,12.43
2018-09-28T05:02:58.228Z,16.48
2018-09-28T05:05:26.313Z,18.27
2018-09-28T05:07:54.417Z,14.70
2018-09-28T05:10:22.235Z,15.95
2018-09-28T05:12:50.375Z,14.73
2018-09-28T05:15:18.375Z,19.90
2018-09-28T05:17:46.388Z,18.37
2018-09-28T05:20:14.688Z,15.58
2018-09-28T05:22:42.817Z,21.77
2018-09-28T05:25:11.069Z,17.75
2018-09-28T05:27:39.930Z,23.98
2018-09-28T05:30:08.183Z,26.65
2018-09-28T05:32:36.530Z,19.27
2018-09-28T05:35:04.173Z,18.82
2018-09-28T05:37:32.348Z,22.00
2018-09-28T05:40:00.312Z,22.48
2018-09-28T05:42:28.537Z,21.50
2018-09-28T05:44:56.540Z,29.05
2018-09-28T05:47:24.646Z,19.92
2018-09-28T05:49:52.721Z,37.15
2018-09-28T05:52:20.673Z,22.25
2018-09-28T05:54:48.685Z,23.27
2018-09-28T05:57:16.929Z,21.25
2018-09-28T06:01:58.040Z,20.72
2018-09-28T06:05:34.977Z,18.02
2018-09-28T06:08:03.269Z,21.23
2018-09-28T06:10:31.323Z,18.45
2018-09-28T06:12:59.289Z,21.33
2018-09-28T06:15:27.572Z,18.17
2018-09-28T06:17:55.864Z,15.35
2018-09-28T06:20:23.936Z,13.65
2018-09-28T06:22:52.019Z,16.48
2018-09-28T06:25:20.001Z,18.40
2018-09-28T06:27:48.508Z,15.13
2018-09-28T06:30:16.551Z,16.77
2018-09-28T06:32:44.641Z,19.20
2018-09-28T06:35:12.669Z,25.80
2018-09-28T06:37:40.795Z,15.50
2018-09-28T06:40:08.876Z,15.43
2018-09-28T06:42:36.748Z,14.78
2018-09-28T06:45:05.044Z,11.83
2018-09-28T06:47:33.340Z,13.08
2018-09-28T06:50:01.446Z,13.62
2018-09-28T06:52:29.462Z,15.23
2018-09-28T06:54:57.556Z,14.35
2018-09-28T06:57:25.598Z,12.80
2018-09-28T06:59:53.760Z,13.63
2018-09-28T07:02:21.659Z,11.43
2018-09-28T07:04:51.680Z,12.70
2018-09-28T07:07:20.017Z,8.30
2018-09-28T07:09:48.137Z,10.87
2018-09-28T07:12:16.320Z,8.97
2018-09-28T07:14:44.580Z,9.30
2018-09-28T07:17:12.660Z,10.90
2018-09-28T07:19:40.790Z,7.73
2018-09-28T07:22:08.796Z,7.53
2018-09-28T07:24:36.913Z,9.70
2018-09-28T07:27:04.935Z,6.83
2018-09-28T07:29:32.980Z,6.30
2018-09-28T07:32:01.053Z,6.33
2018-09-28T07:34:29.019Z,7.37
2018-09-28T07:36:57.352Z,7.27
2018-09-28T07:39:25.339Z,7.60
2018-09-28T07:41:53.363Z,6.83
2018-09-28T07:44:21.489Z,10.47
2018-09-28T07:46:49.418Z,6.97
2018-09-28T07:49:18.536Z,5.63
2018-09-28T07:51:46.566Z,6.10
2018-09-28T07:54:14.536Z,6.23
2018-09-28T07:56:42.700Z,6.90
2018-09-28T07:59:10.679Z,6.50
2018-09-28T08:01:38.945Z,9.40
2018-09-28T08:04:07.417Z,9.20
2018-09-28T08:06:35.440Z,5.67
2018-09-28T08:09:05.295Z,5.63
2018-09-28T08:11:33.589Z,5.30
2018-09-28T08:14:03.468Z,5.70
2018-09-28T08:16:31.579Z,4.63
2018-09-28T08:18:59.724Z,5.23
2018-09-28T08:21:28.069Z,5.60
2018-09-28T08:23:56.072Z,6.07
2018-09-28T08:26:24.184Z,7.87
2018-09-28T08:28:52.159Z,5.90
2018-09-28T08:31:20.336Z,6.43
2018-09-28T08:33:48.385Z,8.17
2018-09-28T08:36:16.589Z,4.80
2018-09-28T08:38:44.844Z,4.60
2018-09-28T08:41:12.896Z,4.70
2018-09-28T08:43:41.078Z,5.87
2018-09-28T08:46:08.972Z,5.20
2018-09-28T08:48:37.135Z,6.83
2018-09-28T08:51:05.485Z,4.37
2018-09-28T08:53:33.563Z,5.00
2018-09-28T08:56:01.655Z,9.60
2018-09-28T08:58:29.888Z,5.03
2018-09-28T09:00:57.701Z,4.93
2018-09-28T09:03:25.848Z,4.60
2018-09-28T09:05:53.837Z,6.47
2018-09-28T09:08:23.000Z,4.90
2018-09-28T09:10:51.350Z,7.00
2018-09-28T09:13:21.105Z,7.63
2018-09-28T09:15:51.140Z,4.60
2018-09-28T09:18:19.193Z,4.67
2018-09-28T09:20:47.268Z,3.80
2018-09-28T09:23:15.265Z,4.17
2018-09-28T09:25:43.485Z,4.33
2018-09-28T09:28:11.801Z,5.07
2018-09-28T09:30:39.896Z,7.80
2018-09-28T09:33:07.848Z,5.00
2018-09-28T09:35:35.903Z,4.03
2018-09-28T09:38:04.979Z,4.77
2018-09-28T09:40:33.105Z,4.13
2018-09-28T09:43:01.148Z,3.97
2018-09-28T09:45:29.109Z,4.93
2018-09-28T09:47:57.380Z,4.43
2018-09-28T09:50:25.290Z,5.43
2018-09-28T09:52:53.402Z,4.67
2018-09-28T09:55:21.537Z,4.23
2018-09-28T09:57:49.647Z,4.63
2018-09-28T10:00:23.176Z,4.40
2018-09-28T10:02:56.572Z,3.40
2018-09-28T10:05:24.844Z,3.00
2018-09-28T10:07:52.833Z,3.60
2018-09-28T10:10:21.006Z,4.20
2018-09-28T10:12:49.327Z,4.83
2018-09-28T10:15:17.741Z,4.17
2018-09-28T10:24:45.087Z,2.70
2018-09-28T10:27:13.283Z,3.37
2018-09-28T10:29:41.204Z,3.23
2018-09-28T10:32:09.405Z,4.27
2018-09-28T10:34:38.248Z,5.10
2018-09-28T10:37:06.529Z,7.83
2018-09-28T10:39:38.233Z,3.50
2018-09-28T10:42:06.398Z,3.20
2018-09-28T10:44:34.225Z,4.27
2018-09-28T10:47:05.604Z,3.60
2018-09-28T10:49:34.837Z,3.23
2018-09-28T10:52:02.952Z,4.20
2018-09-28T10:54:30.920Z,3.90
2018-09-28T10:56:58.998Z,5.33
2018-09-28T10:59:27.093Z,6.07
2018-09-28T11:01:55.184Z,4.73
2018-09-28T11:04:24.421Z,4.10
2018-09-28T11:06:52.529Z,2.97
2018-09-28T11:09:21.424Z,3.03
2018-09-28T11:11:49.659Z,4.13
2018-09-28T11:14:17.552Z,4.73
2018-09-28T11:16:48.968Z,3.77
2018-09-28T11:19:17.791Z,2.67
2018-09-28T11:21:45.854Z,5.07
2018-09-28T11:24:13.813Z,3.93
2018-09-28T11:26:41.984Z,4.90
2018-09-28T11:29:10.080Z,3.10
2018-09-28T11:31:38.058Z,5.87
2018-09-28T11:34:06.285Z,4.27
2018-09-28T11:36:34.313Z,5.80
2018-09-28T11:39:05.271Z,3.40
2018-09-28T11:41:33.376Z,5.13
2018-09-28T11:44:01.455Z,3.20
2018-09-28T11:46:29.667Z,3.43
2018-09-28T11:48:57.622Z,5.10
2018-09-28T11:51:25.815Z,2.70
2018-09-28T11:56:27.384Z,3.40
2018-09-28T12:05:54.751Z,3.30
2018-09-28T12:08:23.038Z,6.63
2018-09-28T12:10:51.375Z,5.60
2018-09-28T12:13:19.255Z,3.50
2018-09-28T12:15:47.268Z,6.27
2018-09-28T12:18:15.179Z,3.30
2018-09-28T12:20:43.179Z,3.43
2018-09-28T12:23:11.304Z,4.07
2018-09-28T12:25:39.401Z,3.33
2018-09-28T12:28:07.465Z,5.07
2018-09-28T12:30:35.551Z,3.47
2018-09-28T12:33:03.487Z,3.40
2018-09-28T12:35:31.741Z,4.30
2018-09-28T12:37:59.632Z,5.87
2018-09-28T12:40:27.879Z,3.90
2018-09-28T12:42:56.185Z,4.27
2018-09-28T12:45:24.323Z,4.00
2018-09-28T12:47:52.255Z,2.90
2018-09-28T12:50:20.441Z,3.40
2018-09-28T12:52:48.489Z,3.50
2018-09-28T12:55:16.565Z,4.73
2018-09-28T12:57:44.528Z,3.93
2018-09-28T13:00:12.824Z,3.83
2018-09-28T13:02:41.157Z,3.33
2018-09-28T13:05:09.459Z,3.30
2018-09-28T13:07:37.436Z,3.23
2018-09-28T13:10:05.548Z,4.40
2018-09-28T13:12:33.663Z,4.10
2018-09-28T13:15:01.885Z,3.13
2018-09-28T13:17:29.845Z,3.83
2018-09-28T13:19:57.902Z,3.47
2018-09-28T13:22:25.937Z,7.60
2018-09-28T13:24:54.408Z,4.00
2018-09-28T13:27:22.763Z,3.33
2018-09-28T13:29:50.985Z,3.83
2018-09-28T13:32:19.790Z,3.87
2018-09-28T13:34:47.743Z,3.13
2018-09-28T13:37:15.953Z,4.47
2018-09-28T13:39:44.073Z,4.00
2018-09-28T13:42:12.456Z,5.00
2018-09-28T13:44:40.360Z,5.00
2018-09-28T13:47:08.600Z,6.07
2018-09-28T13:49:37.860Z,3.43
2018-09-28T13:52:06.156Z,3.27
2018-09-28T13:54:34.339Z,4.70
2018-09-28T13:57:02.375Z,3.40
2018-09-28T13:59:30.471Z,3.57
2018-09-28T14:01:58.252Z,4.17
2018-09-28T14:04:28.462Z,3.40
2018-09-28T14:06:56.469Z,5.43
2018-09-28T14:09:24.546Z,4.97
2018-09-28T14:11:52.634Z,2.67
2018-09-28T14:14:20.700Z,2.70
2018-09-28T14:16:48.670Z,3.30
2018-09-28T14:19:16.692Z,4.70
2018-09-28T14:21:44.886Z,5.17
2018-09-28T14:24:12.976Z,4.90
2018-09-28T14:26:41.170Z,3.20
2018-09-28T14:29:09.012Z,3.00
2018-09-28T14:31:37.272Z,3.20
2018-09-28T14:34:05.719Z,4.83
2018-09-28T14:36:34.785Z,2.97
2018-09-28T14:39:04.125Z,3.05
2018-09-28T14:41:32.277Z,3.02
2018-09-28T14:44:00.688Z,2.50
2018-09-28T14:46:29.004Z,3.17
2018-09-28T14:48:57.542Z,1.95
2018-09-28T14:51:25.340Z,2.80
2018-09-28T14:53:53.536Z,2.00
2018-09-28T14:56:21.613Z,2.90
2018-09-28T14:58:49.564Z,3.50
2018-09-28T15:01:17.756Z,2.40
2018-09-28T15:03:45.687Z,2.60
2018-09-28T15:06:13.962Z,4.15
2018-09-28T15:08:42.277Z,2.25
2018-09-28T15:11:10.280Z,8.48
2018-09-28T15:13:38.590Z,3.08
2018-09-28T15:16:06.847Z,2.95
2018-09-28T15:18:35.481Z,3.65
2018-09-28T15:21:03.812Z,3.00
2018-09-28T15:23:31.813Z,3.90
2018-09-28T15:25:59.893Z,3.25
2018-09-28T15:28:28.112Z,3.30
2018-09-28T15:30:56.005Z,6.10
2018-09-28T15:33:24.165Z,2.92
2018-09-28T15:35:52.277Z,4.30
2018-09-28T15:38:20.218Z,4.53
2018-09-28T15:40:48.398Z,6.17
2018-09-28T15:43:17.709Z,4.28
2018-09-28T15:45:45.752Z,4.75
2018-09-28T15:48:13.809Z,5.00
2018-09-28T15:50:41.931Z,5.12
2018-09-28T15:53:11.292Z,4.70
2018-09-28T15:55:40.435Z,5.53
2018-09-28T15:58:08.452Z,4.78
2018-09-28T16:00:37.624Z,5.10
2018-09-28T16:03:06.017Z,5.83
2018-09-28T16:05:34.372Z,4.85
2018-09-28T16:08:02.426Z,4.70
2018-09-28T16:10:30.508Z,4.62
2018-09-28T16:12:58.534Z,5.10
2018-09-28T16:15:26.670Z,5.10
2018-09-28T16:17:54.995Z,5.60
2018-09-28T16:20:23.037Z,4.90
2018-09-28T16:22:51.159Z,4.45
2018-09-28T16:25:19.199Z,5.83
2018-09-28T16:27:47.292Z,5.20
2018-09-28T16:30:15.344Z,5.37
2018-09-28T16:32:43.435Z,5.25
2018-09-28T16:35:12.299Z,7.35
2018-09-28T16:37:40.555Z,7.10
2018-09-28T16:40:08.849Z,5.37
2018-09-28T16:42:36.929Z,5.87
2018-09-28T16:45:04.919Z,4.70
2018-09-28T16:47:33.005Z,6.83
2018-09-28T16:50:01.064Z,5.80
2018-09-28T16:52:29.263Z,6.08
2018-09-28T16:54:57.619Z,6.92
2018-09-28T16:57:25.642Z,5.60
2018-09-28T16:59:53.707Z,5.45
2018-09-28T17:02:21.695Z,6.17
2018-09-28T17:04:49.929Z,6.05
2018-09-28T17:07:17.940Z,5.95
2018-09-28T17:09:46.224Z,7.58
2018-09-28T17:12:14.380Z,7.22
2018-09-28T17:14:42.323Z,7.42
2018-09-28T17:17:10.624Z,9.05
2018-09-28T17:19:38.928Z,7.70
2018-09-28T17:22:06.996Z,9.08
2018-09-28T17:24:35.095Z,9.40
2018-09-28T17:27:03.468Z,8.13
2018-09-28T17:29:31.540Z,8.83
2018-09-28T17:31:59.556Z,7.85
2018-09-28T17:34:27.343Z,12.40
2018-09-28T17:36:55.440Z,10.70
2018-09-28T17:39:23.433Z,14.80
2018-09-28T17:41:51.427Z,9.88
2018-09-28T17:44:19.600Z,14.07
2018-09-28T17:46:47.733Z,9.70
2018-09-28T17:49:15.776Z,9.73
2018-09-28T17:51:43.787Z,23.73
2018-09-28T17:54:11.812Z,14.18
2018-09-28T17:56:39.858Z,13.70
2018-09-28T17:59:08.588Z,14.55
2018-09-28T18:01:36.803Z,13.75
2018-09-28T18:04:04.723Z,14.18
2018-09-28T18:06:33.076Z,11.35
2018-09-28T18:09:01.278Z,10.90
2018-09-28T18:11:30.516Z,13.78
2018-09-28T18:13:58.309Z,12.85
2018-09-28T18:16:27.118Z,12.70
2018-09-28T18:18:55.399Z,12.73
2018-09-28T18:21:23.529Z,15.10
2018-09-28T18:23:51.907Z,14.73
2018-09-28T18:26:19.809Z,18.25
2018-09-28T18:28:47.978Z,21.93
2018-09-28T18:31:16.365Z,14.68
2018-09-28T18:33:44.359Z,17.52
2018-09-28T18:36:12.558Z,15.75
2018-09-28T18:38:40.605Z,14.53
2018-09-28T18:41:08.878Z,13.55
2018-09-28T18:43:37.002Z,15.20
2018-09-28T18:46:05.188Z,15.45
2018-09-28T18:48:33.554Z,15.05
2018-09-28T18:51:01.571Z,12.98
2018-09-28T18:53:29.648Z,13.98
2018-09-28T18:55:57.765Z,13.53
2018-09-28T18:58:26.063Z,17.27
2018-09-28T19:00:54.152Z,16.42
2018-09-28T19:03:22.214Z,13.75
2018-09-28T19:05:50.387Z,13.10
2018-09-28T19:08:18.421Z,21.65
2018-09-28T19:10:46.724Z,13.70
2018-09-28T19:13:14.818Z,13.25
2018-09-28T19:15:42.900Z,16.15
2018-09-28T19:18:10.848Z,16.10
2018-09-28T19:20:39.472Z,14.33
2018-09-28T19:23:07.738Z,16.27
2018-09-28T19:25:35.785Z,16.42
2018-09-28T19:28:04.182Z,16.20
2018-09-28T19:30:32.339Z,13.53
2018-09-28T19:33:02.212Z,12.75
2018-09-28T19:35:30.509Z,12.93
2018-09-28T19:37:58.573Z,14.35
2018-09-28T19:40:26.624Z,14.03
2018-09-28T19:42:54.607Z,13.15
2018-09-28T19:45:22.760Z,12.50
2018-09-28T19:47:50.861Z,13.60
2018-09-28T19:50:18.948Z,16.85
2018-09-28T19:52:47.078Z,12.45
2018-09-28T19:55:15.410Z,12.50
2018-09-28T19:57:44.296Z,13.85
2018-09-28T20:00:12.470Z,10.75
2018-09-28T20:02:40.412Z,12.15
2018-09-28T20:05:08.475Z,11.83
2018-09-28T20:07:36.734Z,12.18
2018-09-28T20:10:04.650Z,13.78
2018-09-28T20:12:32.683Z,13.75
2018-09-28T20:15:00.819Z,12.28
2018-09-28T20:17:28.987Z,13.15
2018-09-28T20:19:57.287Z,13.80
2018-09-28T20:22:25.411Z,13.65
2018-09-28T20:24:53.352Z,13.72
2018-09-28T20:27:25.597Z,14.83
2018-09-28T20:29:53.876Z,12.53
2018-09-28T20:32:21.981Z,15.75
2018-09-28T20:34:49.923Z,12.45
2018-09-28T20:37:18.136Z,15.90
2018-09-28T20:39:46.173Z,11.73
2018-09-28T20:42:14.370Z,10.53
2018-09-28T20:44:42.629Z,10.72
2018-09-28T20:47:10.704Z,9.60
2018-09-28T20:49:38.679Z,10.13
2018-09-28T20:52:06.830Z,11.70
2018-09-28T20:54:34.956Z,11.00
2018-09-28T20:57:02.921Z,10.80
2018-09-28T20:59:33.320Z,9.65
2018-09-28T21:02:01.640Z,10.75
2018-09-28T21:04:29.639Z,10.10
2018-09-28T21:06:57.775Z,10.10
2018-09-28T21:09:25.789Z,10.28
2018-09-28T21:11:53.921Z,10.63
2018-09-28T21:14:21.827Z,10.85
2018-09-28T21:16:50.079Z,15.00
2018-09-28T21:19:18.108Z,10.93
2018-09-28T21:21:47.377Z,10.05
2018-09-28T21:24:15.485Z,10.90
2018-09-28T21:26:43.513Z,10.85
2018-09-28T21:29:11.634Z,15.58
2018-09-28T21:31:39.677Z,11.78
2018-09-28T21:34:07.817Z,14.85
2018-09-28T21:36:36.112Z,14.75
2018-09-28T21:39:05.824Z,11.05
2018-09-28T21:41:34.124Z,13.30
2018-09-28T21:44:02.191Z,11.65
2018-09-28T21:46:30.300Z,12.65
2018-09-28T21:48:58.335Z,11.65
2018-09-28T21:51:26.508Z,11.38
2018-09-28T21:53:54.413Z,10.90
2018-09-28T21:56:22.492Z,12.28
2018-09-28T21:58:50.680Z,11.60
2018-09-28T22:01:19.551Z,11.43
2018-09-28T22:03:49.064Z,14.00
2018-09-28T22:06:16.905Z,13.80
2018-09-28T22:08:45.321Z,12.85
2018-09-28T22:11:13.889Z,12.10
2018-09-28T22:13:42.161Z,12.93
2018-09-28T22:16:10.120Z,13.93
2018-09-28T22:18:37.903Z,15.68
2018-09-28T22:21:06.057Z,16.97
2018-09-28T22:23:34.477Z,11.70
2018-09-28T22:26:02.893Z,13.10
2018-09-28T22:28:31.164Z,11.88
2018-09-28T22:30:59.225Z,11.95
2018-09-28T22:33:27.326Z,12.15
2018-09-28T22:35:55.436Z,12.40
2018-09-28T22:38:25.494Z,13.58
2018-09-28T22:40:53.909Z,14.00
2018-09-28T22:43:22.080Z,13.30
2018-09-28T22:45:50.112Z,13.50
2018-09-28T22:48:18.223Z,11.70
2018-09-28T22:50:46.609Z,12.55
2018-09-28T22:53:14.883Z,12.58
2018-09-28T22:55:42.998Z,15.20
2018-09-28T22:58:11.146Z,13.25
2018-09-28T23:00:39.027Z,12.93
2018-09-28T23:03:07.219Z,14.40
2018-09-28T23:05:35.370Z,11.95
2018-09-28T23:08:03.381Z,12.23
2018-09-28T23:10:31.454Z,11.50
2018-09-28T23:12:59.488Z,13.35
2018-09-28T23:15:27.576Z,12.75
2018-09-28T23:17:55.755Z,12.95
2018-09-28T23:20:24.038Z,13.68
2018-09-28T23:22:52.097Z,13.85
2018-09-28T23:25:20.268Z,15.85
2018-09-28T23:27:48.199Z,16.15
2018-09-28T23:30:16.247Z,14.60
2018-09-28T23:32:44.546Z,14.03
2018-09-28T23:35:12.335Z,13.13
2018-09-28T23:37:40.423Z,15.45
2018-09-28T23:40:08.609Z,16.12
2018-09-28T23:42:36.585Z,16.75
2018-09-28T23:45:04.662Z,13.65
2018-09-28T23:47:32.828Z,15.08
2018-09-28T23:50:00.884Z,19.87
2018-09-28T23:52:29.034Z,14.15
2018-09-28T23:54:57.011Z,14.33
2018-09-28T23:57:25.099Z,17.25
2018-09-28T23:59:53.179Z,15.85
